Time;durP1;ratioP1;P1;durP2;ratioP2;P2;SDS_P1;SDS_P2;PMS_P1;PMS_P2;Temp;Humidity;BMP_temperature;BMP_pressure;BME280_temperature;BME280_humidity;BME280_pressure;Samples;Min_cycle;Max_cycle;Signal;HPM_P1;HPM_P2
2023/01/26 00:01:23;;;;;;;;;18.00;13.75;;;;;20.35;38.33;102356.00;5055399;28;45446;-71
2023/01/26 00:03:49;;;;;;;;;18.25;15.25;;;;;20.35;38.36;102353.34;5055126;28;46197;-71
2023/01/26 00:06:18;;;;;;;;;17.75;17.75;;;;;20.34;38.01;102351.66;5055072;28;45361;-71
2023/01/26 00:08:52;;;;;;;;;15.00;15.00;;;;;20.29;38.30;102347.63;5057443;28;45442;-72
2023/01/26 00:11:23;;;;;;;;;17.50;16.00;;;;;20.33;37.88;102348.19;5058211;28;45473;-71
2023/01/26 00:13:49;;;;;;;;;17.25;15.00;;;;;20.33;38.10;102339.41;5058496;28;46965;-72
2023/01/26 00:16:15;;;;;;;;;19.50;14.50;;;;;20.33;38.15;102344.69;5058604;28;45380;-71
2023/01/26 00:18:41;;;;;;;;;17.50;14.75;;;;;20.33;37.88;102349.97;5058688;28;45297;-71
2023/01/26 00:21:10;;;;;;;;;17.00;16.00;;;;;20.20;38.22;102321.13;5058628;28;45556;-72
2023/01/26 00:23:36;;;;;;;;;19.50;15.25;;;;;20.32;38.25;102340.38;5058136;28;46162;-71
2023/01/26 00:26:01;;;;;;;;;22.00;15.25;;;;;20.33;38.22;102342.03;5058105;28;45413;-71
2023/01/26 00:28:28;;;;;;;;;23.00;17.00;;;;;20.32;38.22;102337.75;5058796;28;45336;-70
2023/01/26 00:30:53;;;;;;;;;18.00;14.50;;;;;20.20;37.97;102314.03;5058527;28;45476;-71
2023/01/26 00:33:18;;;;;;;;;19.75;15.50;;;;;20.31;37.98;102328.97;5056893;28;46109;-71
2023/01/26 00:35:53;;;;;;;;;21.00;18.00;;;;;20.29;38.22;102323.84;5058150;28;45392;-72
2023/01/26 00:38:18;;;;;;;;;20.00;15.75;;;;;20.31;38.01;102333.41;5058562;28;45365;-72
2023/01/26 00:40:43;;;;;;;;;18.25;17.00;;;;;20.22;37.81;102304.16;5057827;28;45369;-72
2023/01/26 00:43:08;;;;;;;;;17.25;14.75;;;;;20.31;37.96;102314.91;5058098;28;47152;-71
2023/01/26 00:45:34;;;;;;;;;21.25;17.50;;;;;20.26;38.04;102308.22;5057638;28;45348;-72
2023/01/26 00:48:00;;;;;;;;;19.75;18.25;;;;;20.28;38.00;102311.56;5058143;28;45262;-72
2023/01/26 00:50:25;;;;;;;;;22.50;14.75;;;;;20.21;37.88;102299.88;5058237;28;45332;-72
2023/01/26 00:52:52;;;;;;;;;22.00;16.50;;;;;20.28;37.93;102305.44;5057960;28;45249;-73
2023/01/26 00:55:18;;;;;;;;;16.75;15.75;;;;;20.28;38.07;102311.56;5057599;28;45236;-72
2023/01/26 00:57:43;;;;;;;;;21.25;17.25;;;;;20.27;37.89;102294.03;5058012;28;45211;-71
2023/01/26 01:00:12;;;;;;;;;17.25;15.25;;;;;20.27;37.90;102299.31;5057879;28;45304;-69
2023/01/26 01:02:37;;;;;;;;;17.75;15.25;;;;;20.21;38.00;102289.28;5057882;28;47047;-71
2023/01/26 01:05:03;;;;;;;;;20.50;18.50;;;;;20.25;37.93;102292.50;5057797;28;45365;-71
2023/01/26 01:07:28;;;;;;;;;21.00;14.50;;;;;20.24;37.83;102280.25;5057938;28;45362;-71
2023/01/26 01:09:54;;;;;;;;;17.25;14.50;;;;;20.24;38.26;102277.63;5057769;28;45383;-71
2023/01/26 01:12:19;;;;;;;;;16.00;14.00;;;;;20.25;37.86;102277.47;5057574;28;45387;-71
2023/01/26 01:14:44;;;;;;;;;20.25;14.50;;;;;20.25;38.01;102274.00;5057657;28;45336;-71
2023/01/26 01:17:10;;;;;;;;;21.50;16.25;;;;;20.23;37.85;102275.94;5057915;28;45365;-71
2023/01/26 01:19:35;;;;;;;;;23.00;19.25;;;;;20.24;37.84;102267.88;5056738;28;45515;-71
2023/01/26 01:22:00;;;;;;;;;15.75;14.75;;;;;20.25;38.02;102271.34;5057680;28;45380;-71
2023/01/26 01:24:26;;;;;;;;;16.25;14.25;;;;;20.26;37.76;102270.38;5056175;28;45404;-72
2023/01/26 01:26:51;;;;;;;;;18.25;16.75;;;;;20.25;37.97;102272.19;5057690;28;45407;-71
2023/01/26 01:29:16;;;;;;;;;18.75;15.75;;;;;20.26;37.93;102279.16;5057674;28;45469;-71
2023/01/26 01:31:42;;;;;;;;;21.00;16.00;;;;;20.22;37.93;102266.34;5057442;28;46022;-71
2023/01/26 01:34:07;;;;;;;;;23.00;17.50;;;;;20.22;37.82;102258.41;5057382;28;45486;-71
2023/01/26 01:36:33;;;;;;;;;16.00;14.25;;;;;20.23;37.96;102268.84;5057516;28;45344;-71
2023/01/26 01:38:58;;;;;;;;;22.00;18.25;;;;;20.26;37.99;102270.38;5057031;28;45349;-71
2023/01/26 01:41:23;;;;;;;;;21.25;20.75;;;;;20.24;37.93;102267.88;5057247;28;45518;-71
2023/01/26 01:43:50;;;;;;;;;24.00;19.25;;;;;20.25;37.75;102266.91;5057007;28;45322;-71
2023/01/26 01:46:24;;;;;;;;;17.00;16.00;;;;;20.25;37.97;102266.06;5057189;28;45365;-72
2023/01/26 01:48:59;;;;;;;;;20.50;16.25;;;;;20.25;37.68;102258.13;5057139;28;45427;-71
2023/01/26 01:51:33;;;;;;;;;22.50;17.00;;;;;20.24;37.89;102244.09;5056957;28;47393;-70
2023/01/26 01:54:04;;;;;;;;;19.00;16.00;;;;;20.25;38.02;102251.03;5056784;28;45308;-72
2023/01/26 01:56:32;;;;;;;;;18.50;17.25;;;;;20.22;37.96;102243.38;5057026;28;45529;-72
2023/01/26 01:59:00;;;;;;;;;14.75;14.25;;;;;20.25;37.86;102251.03;5057032;28;45448;-71
2023/01/26 02:01:26;;;;;;;;;22.50;18.00;;;;;20.24;37.77;102248.53;5056868;28;45296;-69
2023/01/26 02:03:58;;;;;;;;;20.75;17.75;;;;;20.26;37.80;102257.16;5056843;28;45488;-69
2023/01/26 02:06:37;;;;;;;;;21.25;17.25;;;;;20.26;37.71;102255.38;5056633;28;45317;-71
2023/01/26 02:09:04;;;;;;;;;14.75;14.50;;;;;20.26;37.93;102258.00;5056932;28;45274;-71
2023/01/26 02:11:43;;;;;;;;;15.50;13.50;;;;;20.24;37.75;102251.19;5056741;28;46141;-71
2023/01/26 02:14:13;;;;;;;;;20.00;14.50;;;;;20.26;37.85;102259.81;5055997;28;45428;-71
2023/01/26 02:16:41;;;;;;;;;17.50;15.00;;;;;20.20;38.13;102244.47;5056769;28;45404;-72
2023/01/26 02:19:18;;;;;;;;;15.75;14.25;;;;;20.24;37.50;102253.84;5056723;28;45294;-71
2023/01/26 02:21:46;;;;;;;;;27.00;16.00;;;;;20.23;37.86;102252.16;5056193;28;46321;-72
2023/01/26 02:24:34;;;;;;;;;22.00;18.00;;;;;20.25;37.69;102256.34;5056354;28;45392;-71
2023/01/26 02:27:00;;;;;;;;;22.50;15.50;;;;;20.21;37.84;102248.81;5056577;28;45309;-71
2023/01/26 02:29:25;;;;;;;;;17.00;15.50;;;;;20.25;37.97;102258.13;5056571;28;45360;-71
2023/01/26 02:31:52;;;;;;;;;18.25;15.50;;;;;20.22;37.85;102264.53;5056306;28;45904;-71
2023/01/26 02:34:17;;;;;;;;;15.25;14.50;;;;;20.25;37.95;102264.25;5056362;28;45337;-71
2023/01/26 02:36:43;;;;;;;;;18.25;16.00;;;;;20.24;37.99;102267.88;5055901;28;45361;-72
2023/01/26 02:39:29;;;;;;;;;20.00;18.00;;;;;20.24;37.62;102265.25;5056661;28;45373;-70
2023/01/26 02:44:41;;;;;;;;;22.75;18.50;;;;;20.24;37.99;102269.69;5055846;28;45234;-72
2023/01/26 02:47:15;;;;;;;;;18.00;16.25;;;;;20.22;37.81;102272.44;5055991;28;45335;-70
2023/01/26 02:49:47;;;;;;;;;18.75;18.50;;;;;20.23;37.90;102268.00;5056035;28;45368;-72
2023/01/26 02:52:18;;;;;;;;;18.50;16.75;;;;;20.23;37.74;102260.91;5055947;28;46383;-72
2023/01/26 02:57:27;;;;;;;;;28.50;17.25;;;;;20.22;37.90;102255.78;5056518;28;45345;-72
2023/01/26 02:59:52;;;;;;;;;16.50;16.00;;;;;20.21;37.78;102256.75;5038076;28;45401;-71
2023/01/26 03:02:18;;;;;;;;;22.25;15.50;;;;;20.14;37.77;102254.63;5055280;28;45390;-71
2023/01/26 03:04:43;;;;;;;;;17.00;16.25;;;;;20.20;37.99;102263.81;5055763;28;45367;-71
2023/01/26 03:07:09;;;;;;;;;21.50;16.75;;;;;20.20;37.98;102258.53;5056072;28;45320;-71
2023/01/26 03:09:35;;;;;;;;;15.25;14.00;;;;;20.20;37.68;102261.19;5056039;28;45548;-70
2023/01/26 03:12:00;;;;;;;;;17.25;15.00;;;;;20.10;37.81;102245.25;5055821;28;45801;-72
2023/01/26 03:14:25;;;;;;;;;20.25;14.00;;;;;20.17;37.81;102254.34;5056063;28;45373;-71
2023/01/26 03:16:50;;;;;;;;;21.25;18.00;;;;;20.16;37.77;102257.13;5056086;28;45386;-71
2023/01/26 03:27:42;;;;;;;;;22.00;17.25;;;;;20.18;38.13;102245.47;5055815;28;45538;-72
2023/01/26 03:30:08;;;;;;;;;20.00;17.00;;;;;20.16;37.91;102241.28;5055746;28;45511;-71
2023/01/26 03:32:33;;;;;;;;;18.25;15.75;;;;;20.16;37.69;102244.78;5055442;28;46197;-72
2023/01/26 03:34:59;;;;;;;;;22.00;16.00;;;;;20.20;37.68;102247.97;5054918;28;48644;-71
2023/01/26 03:37:25;;;;;;;;;21.00;18.00;;;;;20.20;37.66;102240.03;5055758;28;45425;-71
2023/01/26 03:56:31;;;;;;;;;18.50;14.50;;;;;20.11;37.93;102225.81;5058954;28;45277;-72
2023/01/26 03:59:06;;;;;;;;;15.00;15.00;;;;;20.22;37.78;102227.53;5058907;28;45340;-71
2023/01/26 04:01:34;;;;;;;;;19.00;15.50;;;;;20.22;37.82;102221.41;5059031;28;45360;-71
2023/01/26 04:09:30;;;;;;;;;22.00;16.50;;;;;20.17;37.90;102203.31;5058804;28;45360;-71
2023/01/26 04:11:55;;;;;;;;;16.75;15.50;;;;;20.21;37.85;102220.56;5058735;28;45353;-71
2023/01/26 04:22:43;;;;;;;;;15.75;14.25;;;;;20.21;37.90;102212.66;5058532;28;45380;-71
2023/01/26 04:25:11;;;;;;;;;18.50;16.50;;;;;20.21;37.63;102206.53;5058277;28;46203;-71
2023/01/26 04:27:37;;;;;;;;;17.00;16.00;;;;;20.21;37.55;102211.81;5058340;28;45337;-71
2023/01/26 04:30:04;;;;;;;;;17.75;16.75;;;;;20.17;37.77;102205.94;5058469;28;45222;-71
2023/01/26 04:32:29;;;;;;;;;24.00;17.25;;;;;20.13;37.56;102197.47;5058020;28;45368;-71
2023/01/26 04:34:54;;;;;;;;;19.25;16.75;;;;;19.99;37.59;102179.28;5058137;28;46102;-71
2023/01/26 04:37:20;;;;;;;;;17.25;15.00;;;;;20.18;38.18;102208.47;5057799;28;45337;-71
2023/01/26 04:39:46;;;;;;;;;16.00;15.75;;;;;20.19;37.79;102211.97;5058405;28;45361;-71
2023/01/26 04:42:11;;;;;;;;;21.25;16.50;;;;;20.11;37.71;102201.19;5058306;28;45345;-71
2023/01/26 04:44:36;;;;;;;;;19.25;14.75;;;;;20.19;37.92;102211.97;5045722;28;48222;-71
2023/01/26 04:47:01;;;;;;;;;19.75;14.25;;;;;20.15;37.79;102210.53;5040625;28;45298;-71
2023/01/26 04:49:27;;;;;;;;;21.75;15.50;;;;;20.04;37.73;102190.28;5058238;28;45288;-71
2023/01/26 04:51:52;;;;;;;;;18.50;16.00;;;;;20.18;37.93;102218.19;5058266;28;45368;-71
2023/01/26 04:54:17;;;;;;;;;16.50;14.25;;;;;20.14;37.91;102211.53;5055837;28;46352;-71
2023/01/26 04:56:43;;;;;;;;;22.50;18.25;;;;;20.17;37.79;102219.16;5057979;28;45364;-72
2023/01/26 04:59:09;;;;;;;;;17.75;14.75;;;;;20.14;37.93;102212.34;5058137;28;45388;-71
2023/01/26 05:01:35;;;;;;;;;17.00;15.75;;;;;20.18;37.74;102212.91;5057660;28;45423;-72
2023/01/26 05:04:03;;;;;;;;;20.25;16.75;;;;;20.19;37.78;102209.31;5057753;28;46032;-71
2023/01/26 05:06:29;;;;;;;;;17.00;16.00;;;;;20.20;37.74;102215.41;5056429;28;45344;-71
2023/01/26 05:08:54;;;;;;;;;15.25;14.50;;;;;20.18;37.60;102211.13;5057956;28;45395;-71
2023/01/26 05:11:20;;;;;;;;;15.00;14.25;;;;;20.19;37.80;102211.97;5057842;28;45458;-71
2023/01/26 05:13:46;;;;;;;;;19.75;14.75;;;;;20.19;37.62;102209.31;5057745;28;45397;-71
2023/01/26 05:16:13;;;;;;;;;17.00;15.50;;;;;20.15;37.86;102200.81;5057216;28;45315;-72
2023/01/26 05:18:39;;;;;;;;;19.00;16.50;;;;;20.19;37.88;102201.38;5057665;28;45269;-71
2023/01/26 05:21:05;;;;;;;;;14.00;12.75;;;;;20.19;37.87;102214.59;5057570;28;45499;-71
2023/01/26 05:23:30;;;;;;;;;20.75;18.25;;;;;20.18;37.79;102207.63;5057431;28;46284;-71
2023/01/26 05:25:55;;;;;;;;;19.75;15.50;;;;;20.15;37.90;102203.44;5057636;28;45328;-72
2023/01/26 05:28:21;;;;;;;;;16.00;15.50;;;;;20.16;37.76;102207.78;5057764;28;45243;-71
2023/01/26 05:30:46;;;;;;;;;18.25;16.50;;;;;20.16;37.65;102213.06;5057199;28;45467;-71
2023/01/26 05:33:12;;;;;;;;;20.75;16.50;;;;;20.16;37.89;102205.13;5057348;28;45317;-72
2023/01/26 05:35:37;;;;;;;;;23.75;17.75;;;;;20.17;37.53;102198.00;5057337;28;45387;-72
2023/01/26 05:38:02;;;;;;;;;20.25;16.25;;;;;20.16;37.77;102205.13;5057457;28;45413;-71
2023/01/26 05:40:28;;;;;;;;;24.75;18.00;;;;;20.15;37.78;102207.88;5057294;28;45201;-71
2023/01/26 05:42:53;;;;;;;;;18.25;17.75;;;;;20.14;37.94;102208.88;5057229;28;46010;-71
2023/01/26 05:45:20;;;;;;;;;15.00;14.75;;;;;20.20;37.67;102215.41;5056474;28;45276;-71
2023/01/26 05:47:45;;;;;;;;;19.25;15.75;;;;;20.19;38.05;102214.59;5057253;28;45309;-71
2023/01/26 05:50:12;;;;;;;;;19.50;16.75;;;;;20.12;37.87;102202.88;5057269;28;45483;-71
2023/01/26 05:52:37;;;;;;;;;20.00;16.50;;;;;20.21;37.88;102209.16;5057012;28;46163;-71
2023/01/26 05:55:05;;;;;;;;;16.75;16.50;;;;;20.13;37.63;102201.91;5057156;28;45499;-72
2023/01/26 05:57:30;;;;;;;;;20.50;15.25;;;;;20.22;37.74;102206.38;5057077;28;45543;-71
2023/01/26 05:59:55;;;;;;;;;19.00;16.50;;;;;20.15;37.53;102199.97;5056768;28;45454;-71
2023/01/26 06:02:21;;;;;;;;;18.25;17.25;;;;;20.11;37.83;102194.09;5056983;28;45876;-71
2023/01/26 06:04:46;;;;;;;;;19.50;17.25;;;;;20.23;37.90;102215.16;5056531;28;45371;-71
2023/01/26 06:07:12;;;;;;;;;18.25;15.25;;;;;20.20;38.18;102207.47;5056754;28;45395;-72
2023/01/26 06:09:38;;;;;;;;;16.00;13.50;;;;;20.17;37.61;102200.66;5056754;28;45503;-71
2023/01/26 06:12:04;;;;;;;;;21.50;16.75;;;;;20.13;37.85;102192.19;5056655;28;46230;-72
2023/01/26 06:14:29;;;;;;;;;15.50;14.00;;;;;20.23;37.81;102209.88;5056382;28;45421;-71
2023/01/26 06:16:55;;;;;;;;;18.00;15.25;;;;;20.26;37.78;102212.25;5056694;28;45478;-72
2023/01/26 06:19:21;;;;;;;;;15.50;12.75;;;;;20.26;38.07;102222.81;5054678;28;45289;-71
2023/01/26 06:21:46;;;;;;;;;17.75;15.00;;;;;20.27;37.85;102216.56;5056449;28;46048;-71
2023/01/26 06:24:12;;;;;;;;;17.00;14.75;;;;;20.27;38.03;102227.16;5056568;28;45376;-71
2023/01/26 06:26:38;;;;;;;;;16.75;14.25;;;;;20.25;37.86;102231.69;5056621;28;45284;-71
2023/01/26 06:29:03;;;;;;;;;18.25;16.25;;;;;20.24;37.10;102224.75;5056353;28;45508;-71
2023/01/26 06:31:28;;;;;;;;;15.25;11.25;;;;;20.23;38.19;102226.56;5056454;28;46315;-71
2023/01/26 06:33:54;;;;;;;;;19.00;16.75;;;;;20.24;37.78;102228.25;5056452;28;45392;-71
2023/01/26 06:36:20;;;;;;;;;17.50;16.00;;;;;20.28;37.91;102236.72;5056474;28;45376;-71
2023/01/26 06:38:49;;;;;;;;;19.50;16.75;;;;;20.29;37.97;102241.06;5056510;28;45310;-71
2023/01/26 06:41:15;;;;;;;;;20.25;17.00;;;;;20.30;37.97;102240.06;5056141;28;46535;-72
2023/01/26 06:43:45;;;;;;;;;20.25;16.00;;;;;20.31;37.90;102241.75;5055678;28;45381;-71
2023/01/26 06:46:11;;;;;;;;;17.50;14.50;;;;;20.00;37.95;102187.09;5056127;28;45477;-71
2023/01/26 06:48:37;;;;;;;;;14.75;13.75;;;;;20.29;38.08;102241.06;5055998;28;45491;-71
2023/01/26 06:51:15;;;;;;;;;13.75;13.75;;;;;20.32;37.96;102242.59;5056091;28;47219;-71
2023/01/26 06:53:54;;;;;;;;;17.75;14.00;;;;;20.32;37.92;102235.50;5055866;28;45230;-72
2023/01/26 06:56:21;;;;;;;;;18.75;14.25;;;;;20.31;37.66;102238.25;5055711;28;45399;-71
2023/01/26 06:58:47;;;;;;;;;14.50;10.75;;;;;20.24;38.01;102230.88;5056134;28;45453;-71
2023/01/26 07:01:20;;;;;;;;;15.25;13.00;;;;;20.33;37.95;102241.59;5055717;28;46073;-71
2023/01/26 07:03:49;;;;;;;;;17.25;14.25;;;;;20.33;37.79;102242.44;5055910;28;45391;-70
2023/01/26 07:06:15;;;;;;;;;16.50;15.50;;;;;20.33;37.68;102246.88;5056029;28;45442;-72
2023/01/26 07:08:40;;;;;;;;;17.00;13.75;;;;;20.21;37.98;102236.44;5055969;28;45470;-74
2023/01/26 07:11:07;;;;;;;;;16.50;11.50;;;;;20.34;37.73;102260.00;5055483;28;45304;-76
2023/01/26 07:13:32;;;;;;;;;13.50;12.75;;;;;20.32;37.74;102254.00;5054347;28;45720;-71
2023/01/26 07:16:01;;;;;;;;;17.25;12.25;;;;;20.33;38.31;102255.66;5055788;28;45380;-71
2023/01/26 07:18:26;;;;;;;;;18.25;15.25;;;;;20.34;37.95;102252.06;5055027;28;45421;-70
2023/01/26 07:20:52;;;;;;;;;14.75;14.25;;;;;20.23;38.51;102241.56;5055431;28;45400;-71
2023/01/26 07:23:17;;;;;;;;;15.00;14.00;;;;;20.35;38.30;102260.84;5055514;28;45404;-71
2023/01/26 07:25:43;;;;;;;;;17.00;13.25;;;;;20.34;38.33;102273.22;5055511;28;45390;-70
2023/01/26 07:28:09;;;;;;;;;16.75;14.00;;;;;20.28;39.01;102265.81;5055799;28;45355;-74
2023/01/26 07:30:35;;;;;;;;;18.25;15.00;;;;;20.29;38.50;102260.41;5055394;28;47131;-70
2023/01/26 07:33:00;;;;;;;;;12.50;11.50;;;;;20.36;38.24;102273.06;5055069;28;45472;-71
2023/01/26 07:35:25;;;;;;;;;15.50;14.00;;;;;20.37;38.63;102277.38;5037542;28;45368;-69
2023/01/26 07:37:51;;;;;;;;;13.50;13.50;;;;;20.01;38.36;102225.75;5030574;28;45329;-70
2023/01/26 07:40:16;;;;;;;;;14.00;10.75;;;;;20.34;38.80;102275.84;5041774;28;46235;-70
2023/01/26 07:42:42;;;;;;;;;9.00;9.00;;;;;20.38;38.55;102292.25;5046847;28;45470;-69
2023/01/26 07:45:07;;;;;;;;;13.75;13.00;;;;;20.36;38.56;102286.28;5051036;28;45401;-70
2023/01/26 07:47:34;;;;;;;;;18.25;14.00;;;;;20.39;38.69;102289.50;5046919;28;45555;-70
2023/01/26 07:50:00;;;;;;;;;14.25;13.25;;;;;20.38;38.39;102298.38;5051235;28;46317;-70
2023/01/26 07:52:25;;;;;;;;;10.50;10.25;;;;;20.35;38.64;102296.00;5051213;28;45542;-70
2023/01/26 07:54:50;;;;;;;;;10.50;10.25;;;;;20.38;38.78;102295.75;5051062;28;45417;-70
2023/01/26 07:57:16;;;;;;;;;13.25;12.00;;;;;20.38;38.62;102303.69;5051765;28;45700;-70
2023/01/26 07:59:41;;;;;;;;;12.00;11.25;;;;;20.38;38.78;102298.38;5048507;28;46206;-71
2023/01/26 08:02:09;;;;;;;;;13.25;12.25;;;;;20.38;38.46;102301.03;5050984;28;45513;-70
2023/01/26 08:04:34;;;;;;;;;12.00;11.50;;;;;20.39;38.85;102312.44;5050926;28;45553;-70
2023/01/26 08:07:00;;;;;;;;;13.25;12.00;;;;;20.36;38.63;102302.13;5050271;28;45326;-70
2023/01/26 08:09:25;;;;;;;;;12.50;10.00;;;;;20.38;38.52;102308.13;5051612;28;47215;-70
2023/01/26 08:11:51;;;;;;;;;14.50;10.75;;;;;20.39;38.83;102307.16;5050531;28;45858;-70
2023/01/26 08:14:16;;;;;;;;;12.75;10.25;;;;;20.39;38.57;102315.09;5051135;28;45444;-70
2023/01/26 08:16:41;;;;;;;;;10.75;10.25;;;;;20.41;38.50;102329.00;5051090;28;45364;-70
2023/01/26 08:19:07;;;;;;;;;13.75;13.75;;;;;20.28;38.88;102293.06;5050796;28;45373;-70
2023/01/26 08:21:32;;;;;;;;;10.00;10.00;;;;;20.38;38.83;102322.19;5049872;28;45274;-70
2023/01/26 08:24:00;;;;;;;;;16.00;11.75;;;;;20.40;38.54;102314.94;5044492;28;45428;-70
2023/01/26 08:26:26;;;;;;;;;11.25;11.25;;;;;20.42;38.79;102335.13;5050498;28;45562;-70
2023/01/26 08:28:51;;;;;;;;;10.25;10.25;;;;;20.41;38.65;102329.00;5052388;28;45476;-70
2023/01/26 08:31:19;;;;;;;;;9.50;9.50;;;;;20.42;38.77;102335.13;5054274;28;45468;-71
2023/01/26 08:33:47;;;;;;;;;13.50;11.00;;;;;20.40;38.74;102340.56;5054147;28;45355;-70
2023/01/26 08:36:14;;;;;;;;;9.50;9.50;;;;;20.38;38.62;102339.84;5054018;28;45564;-69
2023/01/26 08:38:40;;;;;;;;;13.00;10.75;;;;;20.39;38.33;102349.47;5049371;28;45919;-70
2023/01/26 08:41:06;;;;;;;;;13.25;9.75;;;;;20.38;38.51;102345.97;5053824;28;45528;-69
2023/01/26 08:43:32;;;;;;;;;13.50;9.75;;;;;20.35;38.50;102342.78;5051596;28;45506;-70
2023/01/26 08:45:57;;;;;;;;;9.50;8.50;;;;;20.35;38.67;102346.22;5054165;28;45557;-70
2023/01/26 08:48:23;;;;;;;;;13.75;11.00;;;;;20.38;38.77;102353.91;5054173;28;45478;-70
2023/01/26 08:50:53;;;;;;;;;10.00;10.00;;;;;20.39;38.45;102362.69;5053663;28;45399;-70
2023/01/26 08:53:19;;;;;;;;;10.75;8.25;;;;;20.34;38.51;102349.03;5053890;28;45440;-70
2023/01/26 08:55:44;;;;;;;;;10.50;8.50;;;;;20.37;38.75;102365.47;5035118;28;45825;-70
2023/01/26 08:58:09;;;;;;;;;11.75;8.25;;;;;20.35;38.56;102362.09;5054137;28;47043;-69
2023/01/26 09:00:34;;;;;;;;;4.00;4.00;;;;;20.31;37.57;102365.13;5053527;28;46403;-69
2023/01/26 09:03:01;;;;;;;;;7.25;5.00;;;;;20.20;37.90;102369.53;5054014;28;45490;-70
2023/01/26 09:05:30;;;;;;;;;10.00;7.25;;;;;20.16;38.12;102382.19;5053804;28;45398;-70
2023/01/26 09:07:56;;;;;;;;;12.50;7.50;;;;;20.16;38.28;102387.47;5053508;28;46393;-70
2023/01/26 09:10:21;;;;;;;;;8.75;7.00;;;;;20.07;38.30;102375.84;5054667;28;45436;-69
2023/01/26 09:12:47;;;;;;;;;8.00;7.50;;;;;20.17;38.06;102390.94;5053484;28;45493;-69
2023/01/26 09:15:12;;;;;;;;;6.00;6.00;;;;;20.18;38.30;102396.09;5053935;28;45414;-69
2023/01/26 09:17:37;;;;;;;;;5.75;4.00;;;;;20.12;38.40;102391.31;5052279;28;45416;-69
2023/01/26 09:20:04;;;;;;;;;6.50;5.75;;;;;20.18;38.43;102389.97;5053082;28;45788;-69
2023/01/26 09:22:30;;;;;;;;;7.00;7.00;;;;;20.20;38.62;102397.75;5053446;28;45528;-70
2023/01/26 09:24:55;;;;;;;;;7.25;6.00;;;;;20.13;38.70;102389.53;5053400;28;45531;-70
2023/01/26 09:27:21;;;;;;;;;8.00;7.25;;;;;20.14;38.44;102392.03;5053930;28;46434;-69
2023/01/26 09:29:46;;;;;;;;;3.00;3.00;;;;;20.21;38.43;102402.94;5053175;28;45393;-69
2023/01/26 09:32:11;;;;;;;;;9.75;7.50;;;;;20.22;38.27;102404.59;5053584;28;45633;-69
2023/01/26 09:34:37;;;;;;;;;9.50;9.25;;;;;20.23;38.27;102413.38;5053392;28;45447;-70
2023/01/26 09:37:02;;;;;;;;;3.75;3.75;;;;;20.14;38.39;102401.78;5052665;28;47462;-69
2023/01/26 09:39:27;;;;;;;;;8.75;6.75;;;;;20.22;38.20;102403.78;5052853;28;45865;-69
2023/01/26 09:42:23;;;;;;;;;5.25;5.00;;;;;20.24;38.67;102409.75;5053037;28;45477;-70
2023/01/26 09:45:14;;;;;;;;;5.75;5.75;;;;;20.12;38.62;102401.03;5051817;28;45788;-69
2023/01/26 09:48:04;;;;;;;;;8.25;6.50;;;;;20.23;38.36;102413.38;5052660;28;47384;-69
2023/01/26 09:50:35;;;;;;;;;9.50;8.00;;;;;20.12;38.80;102404.53;5052556;28;45258;-69
2023/01/26 09:53:14;;;;;;;;;8.50;6.75;;;;;20.23;38.31;102406.28;5053231;28;46360;-69
2023/01/26 09:55:40;;;;;;;;;6.50;6.50;;;;;20.24;38.47;102417.69;5052759;28;45430;-70
2023/01/26 09:58:13;;;;;;;;;5.50;5.50;;;;;20.22;38.19;102415.16;5052605;28;46191;-69
2023/01/26 10:00:50;;;;;;;;;4.75;4.75;;;;;20.25;38.47;102417.56;5052405;28;45850;-69
2023/01/26 10:03:27;;;;;;;;;7.00;6.75;;;;;20.25;38.43;102414.91;5052683;28;45371;-69
2023/01/26 10:06:16;;;;;;;;;6.50;5.75;;;;;20.26;38.17;102415.75;5053069;28;45471;-70
2023/01/26 10:08:43;;;;;;;;;8.50;5.00;;;;;20.24;38.01;102415.06;5052192;28;46374;-70
2023/01/26 10:11:23;;;;;;;;;6.00;6.00;;;;;20.26;38.40;102413.09;5053091;28;45535;-69
2023/01/26 10:13:59;;;;;;;;;5.25;4.25;;;;;20.26;38.19;102410.47;5052198;28;45791;-69
2023/01/26 10:16:25;;;;;;;;;5.50;5.25;;;;;20.26;38.16;102413.97;5053309;28;45480;-70
2023/01/26 10:19:01;;;;;;;;;6.75;5.00;;;;;20.27;38.14;102415.63;5051699;28;45751;-69
2023/01/26 10:21:32;;;;;;;;;5.50;5.50;;;;;20.28;38.20;102409.38;5052205;28;45903;-70
2023/01/26 10:24:00;;;;;;;;;8.00;5.00;;;;;20.28;38.02;102425.22;5052874;28;46423;-69
2023/01/26 10:26:29;;;;;;;;;6.25;5.25;;;;;20.29;38.22;102426.91;5051616;28;45518;-70
2023/01/26 10:28:55;;;;;;;;;5.75;5.75;;;;;20.30;38.21;102422.44;5034328;28;46007;-70
2023/01/26 10:31:24;;;;;;;;;4.50;3.75;;;;;20.32;38.06;102427.63;5052452;28;45466;-70
2023/01/26 10:33:53;;;;;;;;;3.75;3.75;;;;;20.33;38.11;102429.28;5052500;28;45434;-70
2023/01/26 10:36:19;;;;;;;;;7.75;5.75;;;;;20.20;38.05;102411.81;5052150;28;45587;-70
2023/01/26 10:38:45;;;;;;;;;6.25;5.50;;;;;20.33;38.22;102435.41;5052146;28;45489;-70
2023/01/26 10:41:15;;;;;;;;;6.75;5.25;;;;;20.34;38.32;102438.91;5052274;28;45438;-69
2023/01/26 10:43:48;;;;;;;;;4.50;3.50;;;;;20.27;38.03;102425.38;5051481;28;45363;-69
2023/01/26 10:46:29;;;;;;;;;6.25;4.75;;;;;20.34;38.01;102436.25;5051691;28;45960;-70
2023/01/26 10:48:59;;;;;;;;;6.75;4.75;;;;;20.33;38.20;102437.22;5052127;28;46318;-70
2023/01/26 10:51:33;;;;;;;;;5.25;5.25;;;;;20.34;38.09;102437.09;5052475;28;45615;-70
2023/01/26 10:54:20;;;;;;;;;7.00;5.00;;;;;20.35;37.98;102432.66;5052118;28;45650;-71
2023/01/26 10:56:55;;;;;;;;;4.00;4.00;;;;;20.35;38.09;102440.59;5052292;28;45610;-70
2023/01/26 10:59:23;;;;;;;;;8.25;4.00;;;;;20.36;38.14;102421.09;5051446;28;45408;-70
2023/01/26 11:01:54;;;;;;;;;4.00;4.00;;;;;20.33;38.11;102427.47;5051405;28;45393;-70
2023/01/26 11:04:19;;;;;;;;;4.25;4.25;;;;;20.34;38.08;102423.88;5051778;28;45483;-71
2023/01/26 11:06:44;;;;;;;;;6.50;5.25;;;;;20.33;38.20;102427.47;5051603;28;45856;-70
2023/01/26 11:09:18;;;;;;;;;4.75;4.75;;;;;20.34;38.22;102430.97;5051689;28;46079;-70
2023/01/26 11:11:57;;;;;;;;;4.00;4.00;;;;;20.35;38.09;102422.09;5052022;28;46474;-70
2023/01/26 11:14:22;;;;;;;;;5.50;5.25;;;;;20.29;38.01;102416.34;5052283;28;45470;-70
2023/01/26 11:17:09;;;;;;;;;5.25;5.00;;;;;20.33;38.20;102414.25;5051746;28;45548;-70
2023/01/26 11:19:49;;;;;;;;;0.75;0.75;;;;;20.33;38.22;102414.25;5047129;28;46280;-69
2023/01/26 11:22:22;;;;;;;;;0.00;0.00;;;;;20.33;37.95;102422.19;5049380;28;45415;-70
2023/01/26 11:25:07;;;;;;;;;5.75;4.50;;;;;20.32;38.21;102411.75;5051757;28;45664;-69
2023/01/26 11:27:45;;;;;;;;;11.00;5.00;;;;;20.32;37.96;102419.69;5051511;28;45392;-69
2023/01/26 11:30:28;;;;;;;;;4.00;4.00;;;;;20.33;38.22;102426.63;5051534;28;45861;-70
2023/01/26 11:33:32;;;;;;;;;3.25;3.25;;;;;20.32;38.00;102409.13;5051746;28;45420;-70
2023/01/26 11:36:11;;;;;;;;;3.75;3.75;;;;;20.28;38.22;102421.75;5051653;28;45436;-70
2023/01/26 11:38:55;;;;;;;;;5.50;3.00;;;;;20.32;38.12;102424.97;5051545;28;45846;-70
2023/01/26 11:41:48;;;;;;;;;3.75;3.25;;;;;20.33;38.33;102413.41;5051137;28;47091;-70
2023/01/26 11:44:48;;;;;;;;;4.00;3.50;;;;;20.33;38.13;102418.69;5050357;28;45411;-70
2023/01/26 11:47:27;;;;;;;;;3.50;3.50;;;;;20.33;38.07;102400.19;4971396;28;45411;-70
2023/01/26 11:50:17;;;;;;;;;4.75;3.00;;;;;20.32;38.11;102417.03;4989852;28;45418;-71
2023/01/26 11:52:58;;;;;;;;;4.50;4.25;;;;;20.32;38.22;102419.69;4988828;28;45529;-71
2023/01/26 11:55:50;;;;;;;;;3.50;3.50;;;;;20.30;38.21;102414.50;4989505;28;45441;-71
2023/01/26 11:58:33;;;;;;;;;4.00;2.75;;;;;20.22;38.20;102401.94;4977940;28;46122;-71
2023/01/26 12:01:02;;;;;;;;;4.50;3.00;;;;;20.31;38.52;102413.56;4969370;28;45646;-72
2023/01/26 12:03:39;;;;;;;;;4.50;4.00;;;;;20.33;38.81;102414.25;4970163;28;45462;-72
2023/01/26 12:06:07;;;;;;;;;4.50;4.00;;;;;20.34;38.61;102415.94;4972466;28;45501;-71